Pine Hill, Pennsylvania
Current Conditions -  °F | °C
As of 1:58 AM on Thursday 23 Oct 2014 (Local Time) from KMUI Reporting Station
Broken Clouds Broken Clouds  
Wind Chill: 52°   Ceiling: 8000
Heat Index: 52°   Visibility: 10mi
Dew Point: 47°   Wind: 12mph
Humidity: 84%   Direction: 350°N
Pressure: 29.87"   Gusts: 26mph
Location:  40.6882°N, 76.264°W
Report Text: KMUI 230558Z AUTO 35010G23KT 10SM SCT025 SCT030 BKN080 11/08 A2987 RMK AO2 SLP118 T01100084 10114 20106 57020 $
Loading
Personal Weather Stations






























Interactive Weather Map
Tropical Storm Tracking
New forecast layout! Learn more

10-Day Weather Forecast

Advertisements
Track Severe Weather on mobile